sensor_id;sensor_type;location;lat;lon;timestamp;temperature;humidity
7163;DHT22;3623;47.098;15.446;2023-06-22T00:01:28;19.00;99.90
7163;DHT22;3623;47.098;15.446;2023-06-22T00:03:55;19.00;99.90
7163;DHT22;3623;47.098;15.446;2023-06-22T00:06:22;18.90;99.90
7163;DHT22;3623;47.098;15.446;2023-06-22T00:08:49;19.00;99.90
7163;DHT22;3623;47.098;15.446;2023-06-22T00:11:16;18.60;99.90
7163;DHT22;3623;47.098;15.446;2023-06-22T00:13:43;18.70;99.90
7163;DHT22;3623;47.098;15.446;2023-06-22T00:16:10;18.80;99.90
7163;DHT22;3623;47.098;15.446;2023-06-22T00:18:38;18.80;99.90
7163;DHT22;3623;47.098;15.446;2023-06-22T00:21:05;18.80;99.90
7163;DHT22;3623;47.098;15.446;2023-06-22T00:23:33;18.60;99.90
7163;DHT22;3623;47.098;15.446;2023-06-22T00:26:00;18.60;99.90
7163;DHT22;3623;47.098;15.446;2023-06-22T00:28:27;18.60;99.90
7163;DHT22;3623;47.098;15.446;2023-06-22T00:30:54;18.70;99.90
7163;DHT22;3623;47.098;15.446;2023-06-22T00:33:21;19.00;99.90
7163;DHT22;3623;47.098;15.446;2023-06-22T00:35:50;18.60;99.90
7163;DHT22;3623;47.098;15.446;2023-06-22T00:38:18;18.50;99.90
7163;DHT22;3623;47.098;15.446;2023-06-22T00:40:45;18.40;99.90
7163;DHT22;3623;47.098;15.446;2023-06-22T00:43:12;18.50;99.90
7163;DHT22;3623;47.098;15.446;2023-06-22T00:45:39;18.50;99.90
7163;DHT22;3623;47.098;15.446;2023-06-22T00:48:07;18.40;99.90
7163;DHT22;3623;47.098;15.446;2023-06-22T00:50:35;18.40;99.90
7163;DHT22;3623;47.098;15.446;2023-06-22T00:53:06;18.40;99.90
7163;DHT22;3623;47.098;15.446;2023-06-22T00:55:35;18.40;99.90
7163;DHT22;3623;47.098;15.446;2023-06-22T00:58:04;18.50;99.90
7163;DHT22;3623;47.098;15.446;2023-06-22T01:00:35;18.40;99.90
7163;DHT22;3623;47.098;15.446;2023-06-22T01:03:03;18.40;99.90
7163;DHT22;3623;47.098;15.446;2023-06-22T01:05:34;18.40;99.90
7163;DHT22;3623;47.098;15.446;2023-06-22T01:08:12;18.30;99.90
7163;DHT22;3623;47.098;15.446;2023-06-22T01:10:44;18.40;99.90
7163;DHT22;3623;47.098;15.446;2023-06-22T01:13:18;18.30;99.90
7163;DHT22;3623;47.098;15.446;2023-06-22T01:15:51;18.30;99.90
7163;DHT22;3623;47.098;15.446;2023-06-22T01:18:22;18.30;99.90
7163;DHT22;3623;47.098;15.446;2023-06-22T01:20:52;18.30;99.90
7163;DHT22;3623;47.098;15.446;2023-06-22T01:23:29;18.30;99.90
7163;DHT22;3623;47.098;15.446;2023-06-22T01:26:06;18.30;99.90
7163;DHT22;3623;47.098;15.446;2023-06-22T01:28:43;18.30;99.90
7163;DHT22;3623;47.098;15.446;2023-06-22T01:31:13;18.40;99.90
7163;DHT22;3623;47.098;15.446;2023-06-22T01:33:43;18.40;99.90
7163;DHT22;3623;47.098;15.446;2023-06-22T01:36:11;18.40;99.90
7163;DHT22;3623;47.098;15.446;2023-06-22T01:38:39;18.30;99.90
7163;DHT22;3623;47.098;15.446;2023-06-22T01:41:06;18.30;99.90
7163;DHT22;3623;47.098;15.446;2023-06-22T01:43:34;18.20;99.90
7163;DHT22;3623;47.098;15.446;2023-06-22T01:46:04;18.30;99.90
7163;DHT22;3623;47.098;15.446;2023-06-22T01:48:31;18.20;99.90
7163;DHT22;3623;47.098;15.446;2023-06-22T01:50:59;18.00;99.90
7163;DHT22;3623;47.098;15.446;2023-06-22T01:53:26;18.20;99.90
7163;DHT22;3623;47.098;15.446;2023-06-22T01:55:53;18.20;99.90
7163;DHT22;3623;47.098;15.446;2023-06-22T01:58:21;18.40;99.90
7163;DHT22;3623;47.098;15.446;2023-06-22T02:00:55;18.20;99.90
7163;DHT22;3623;47.098;15.446;2023-06-22T02:03:28;18.20;99.90
7163;DHT22;3623;47.098;15.446;2023-06-22T02:06:01;18.20;99.90
7163;DHT22;3623;47.098;15.446;2023-06-22T02:08:32;18.10;99.90
7163;DHT22;3623;47.098;15.446;2023-06-22T02:11:02;18.00;99.90
7163;DHT22;3623;47.098;15.446;2023-06-22T02:13:30;17.90;99.90
7163;DHT22;3623;47.098;15.446;2023-06-22T02:15:58;17.90;99.90
7163;DHT22;3623;47.098;15.446;2023-06-22T02:18:27;17.80;99.90
7163;DHT22;3623;47.098;15.446;2023-06-22T02:20:54;17.90;99.90
7163;DHT22;3623;47.098;15.446;2023-06-22T02:23:21;17.90;99.90
7163;DHT22;3623;47.098;15.446;2023-06-22T02:25:49;17.80;99.90
7163;DHT22;3623;47.098;15.446;2023-06-22T02:28:16;17.90;99.90
7163;DHT22;3623;47.098;15.446;2023-06-22T02:30:43;17.90;99.90
7163;DHT22;3623;47.098;15.446;2023-06-22T02:33:10;18.00;99.90
7163;DHT22;3623;47.098;15.446;2023-06-22T02:35:38;17.80;99.90
7163;DHT22;3623;47.098;15.446;2023-06-22T02:38:11;17.80;99.90
7163;DHT22;3623;47.098;15.446;2023-06-22T02:40:38;17.60;99.90
7163;DHT22;3623;47.098;15.446;2023-06-22T02:43:05;17.90;99.90
7163;DHT22;3623;47.098;15.446;2023-06-22T02:45:32;18.00;99.90
7163;DHT22;3623;47.098;15.446;2023-06-22T02:47:59;18.00;99.90
7163;DHT22;3623;47.098;15.446;2023-06-22T02:50:26;18.20;99.90
7163;DHT22;3623;47.098;15.446;2023-06-22T02:52:54;17.90;99.90
7163;DHT22;3623;47.098;15.446;2023-06-22T02:55:22;18.00;99.90
7163;DHT22;3623;47.098;15.446;2023-06-22T02:57:49;18.00;99.90
7163;DHT22;3623;47.098;15.446;2023-06-22T03:00:19;17.50;99.90
7163;DHT22;3623;47.098;15.446;2023-06-22T03:02:48;17.90;99.90
7163;DHT22;3623;47.098;15.446;2023-06-22T03:05:15;18.00;99.90
7163;DHT22;3623;47.098;15.446;2023-06-22T03:07:44;18.00;99.90
7163;DHT22;3623;47.098;15.446;2023-06-22T03:10:13;18.00;99.90
7163;DHT22;3623;47.098;15.446;2023-06-22T03:12:41;18.10;99.90
7163;DHT22;3623;47.098;15.446;2023-06-22T03:15:11;18.10;99.90
7163;DHT22;3623;47.098;15.446;2023-06-22T03:17:39;18.10;99.90
7163;DHT22;3623;47.098;15.446;2023-06-22T03:20:08;18.10;99.90
7163;DHT22;3623;47.098;15.446;2023-06-22T03:22:36;18.10;99.90
7163;DHT22;3623;47.098;15.446;2023-06-22T03:25:04;18.10;99.90
7163;DHT22;3623;47.098;15.446;2023-06-22T03:27:36;18.10;99.90
7163;DHT22;3623;47.098;15.446;2023-06-22T03:30:05;18.20;99.90
7163;DHT22;3623;47.098;15.446;2023-06-22T03:32:32;18.20;99.90
7163;DHT22;3623;47.098;15.446;2023-06-22T03:34:59;18.20;99.90
7163;DHT22;3623;47.098;15.446;2023-06-22T03:37:26;18.10;99.90
7163;DHT22;3623;47.098;15.446;2023-06-22T03:39:53;18.20;99.90
7163;DHT22;3623;47.098;15.446;2023-06-22T03:42:20;18.20;99.90
7163;DHT22;3623;47.098;15.446;2023-06-22T03:44:49;18.50;99.90
7163;DHT22;3623;47.098;15.446;2023-06-22T03:47:16;18.20;99.90
7163;DHT22;3623;47.098;15.446;2023-06-22T03:49:44;18.20;99.90
7163;DHT22;3623;47.098;15.446;2023-06-22T03:52:11;18.20;99.90
7163;DHT22;3623;47.098;15.446;2023-06-22T03:54:37;18.20;99.90
7163;DHT22;3623;47.098;15.446;2023-06-22T03:57:05;18.20;99.90
7163;DHT22;3623;47.098;15.446;2023-06-22T03:59:32;18.20;99.90
7163;DHT22;3623;47.098;15.446;2023-06-22T04:02:00;18.30;99.90
7163;DHT22;3623;47.098;15.446;2023-06-22T04:04:27;18.30;99.90
7163;DHT22;3623;47.098;15.446;2023-06-22T04:06:54;18.30;99.90
7163;DHT22;3623;47.098;15.446;2023-06-22T04:09:21;18.40;99.90
7163;DHT22;3623;47.098;15.446;2023-06-22T04:11:48;18.40;99.90
7163;DHT22;3623;47.098;15.446;2023-06-22T04:14:15;18.40;99.90
7163;DHT22;3623;47.098;15.446;2023-06-22T04:16:43;18.60;99.90
7163;DHT22;3623;47.098;15.446;2023-06-22T04:19:11;18.40;99.90
7163;DHT22;3623;47.098;15.446;2023-06-22T04:21:42;18.40;99.90
7163;DHT22;3623;47.098;15.446;2023-06-22T04:24:10;18.50;99.90
7163;DHT22;3623;47.098;15.446;2023-06-22T04:26:37;18.50;99.90
7163;DHT22;3623;47.098;15.446;2023-06-22T04:29:04;18.50;99.90
7163;DHT22;3623;47.098;15.446;2023-06-22T04:31:32;18.50;99.90
7163;DHT22;3623;47.098;15.446;2023-06-22T04:34:02;18.50;99.90
7163;DHT22;3623;47.098;15.446;2023-06-22T04:36:35;18.60;99.90
7163;DHT22;3623;47.098;15.446;2023-06-22T04:39:07;18.60;99.90
7163;DHT22;3623;47.098;15.446;2023-06-22T04:41:35;18.60;99.90
7163;DHT22;3623;47.098;15.446;2023-06-22T04:44:09;18.70;99.90
7163;DHT22;3623;47.098;15.446;2023-06-22T04:46:37;18.70;99.90
7163;DHT22;3623;47.098;15.446;2023-06-22T04:49:05;18.70;99.90
7163;DHT22;3623;47.098;15.446;2023-06-22T04:51:42;18.70;99.90
7163;DHT22;3623;47.098;15.446;2023-06-22T04:54:09;18.80;99.90
7163;DHT22;3623;47.098;15.446;2023-06-22T04:56:37;18.80;99.90
7163;DHT22;3623;47.098;15.446;2023-06-22T04:59:07;18.90;99.90
7163;DHT22;3623;47.098;15.446;2023-06-22T05:01:34;18.90;99.90
7163;DHT22;3623;47.098;15.446;2023-06-22T05:04:01;19.00;99.90
7163;DHT22;3623;47.098;15.446;2023-06-22T05:06:30;19.00;99.90
7163;DHT22;3623;47.098;15.446;2023-06-22T05:08:59;19.00;99.90
7163;DHT22;3623;47.098;15.446;2023-06-22T05:11:26;19.10;99.90
7163;DHT22;3623;47.098;15.446;2023-06-22T05:13:53;19.20;99.90
7163;DHT22;3623;47.098;15.446;2023-06-22T05:16:21;19.20;99.90
7163;DHT22;3623;47.098;15.446;2023-06-22T05:18:51;19.30;99.90
7163;DHT22;3623;47.098;15.446;2023-06-22T05:21:22;19.50;99.90
7163;DHT22;3623;47.098;15.446;2023-06-22T05:23:50;19.50;99.90
7163;DHT22;3623;47.098;15.446;2023-06-22T05:26:20;19.40;99.90
7163;DHT22;3623;47.098;15.446;2023-06-22T05:28:47;19.50;99.90
7163;DHT22;3623;47.098;15.446;2023-06-22T05:31:15;19.60;99.90
7163;DHT22;3623;47.098;15.446;2023-06-22T05:33:43;19.60;99.90
7163;DHT22;3623;47.098;15.446;2023-06-22T05:36:10;19.70;99.90
7163;DHT22;3623;47.098;15.446;2023-06-22T05:38:38;19.70;99.90
7163;DHT22;3623;47.098;15.446;2023-06-22T05:41:05;19.80;99.90
7163;DHT22;3623;47.098;15.446;2023-06-22T05:43:34;19.90;99.90
7163;DHT22;3623;47.098;15.446;2023-06-22T05:46:02;19.90;99.90
7163;DHT22;3623;47.098;15.446;2023-06-22T05:48:29;20.00;99.90
7163;DHT22;3623;47.098;15.446;2023-06-22T05:50:56;20.10;99.90
7163;DHT22;3623;47.098;15.446;2023-06-22T05:53:23;20.20;99.90
7163;DHT22;3623;47.098;15.446;2023-06-22T05:55:50;20.40;99.90
7163;DHT22;3623;47.098;15.446;2023-06-22T05:58:17;20.40;99.90
7163;DHT22;3623;47.098;15.446;2023-06-22T06:00:46;20.40;99.90
7163;DHT22;3623;47.098;15.446;2023-06-22T06:03:13;20.50;99.90
7163;DHT22;3623;47.098;15.446;2023-06-22T06:05:43;20.60;99.90
7163;DHT22;3623;47.098;15.446;2023-06-22T06:08:10;20.70;99.90
7163;DHT22;3623;47.098;15.446;2023-06-22T06:10:37;20.60;99.90
7163;DHT22;3623;47.098;15.446;2023-06-22T06:13:05;20.80;99.90
7163;DHT22;3623;47.098;15.446;2023-06-22T06:15:32;20.80;99.90
7163;DHT22;3623;47.098;15.446;2023-06-22T06:18:00;20.90;99.90
7163;DHT22;3623;47.098;15.446;2023-06-22T06:20:30;20.20;99.90
7163;DHT22;3623;47.098;15.446;2023-06-22T06:22:58;21.10;99.90
7163;DHT22;3623;47.098;15.446;2023-06-22T06:25:25;21.20;99.90
7163;DHT22;3623;47.098;15.446;2023-06-22T06:27:52;21.30;99.90
7163;DHT22;3623;47.098;15.446;2023-06-22T06:30:20;21.40;99.90
7163;DHT22;3623;47.098;15.446;2023-06-22T06:32:47;21.60;99.90
7163;DHT22;3623;47.098;15.446;2023-06-22T06:35:16;21.60;99.90
7163;DHT22;3623;47.098;15.446;2023-06-22T06:37:45;21.60;99.90
7163;DHT22;3623;47.098;15.446;2023-06-22T06:40:13;21.70;99.90
7163;DHT22;3623;47.098;15.446;2023-06-22T06:42:42;21.70;99.90
7163;DHT22;3623;47.098;15.446;2023-06-22T06:45:11;21.80;99.90
7163;DHT22;3623;47.098;15.446;2023-06-22T06:47:39;21.90;99.90
7163;DHT22;3623;47.098;15.446;2023-06-22T06:50:07;21.90;99.90
7163;DHT22;3623;47.098;15.446;2023-06-22T06:52:36;22.20;99.90
7163;DHT22;3623;47.098;15.446;2023-06-22T06:55:03;22.30;99.90
7163;DHT22;3623;47.098;15.446;2023-06-22T06:57:34;22.40;99.90
7163;DHT22;3623;47.098;15.446;2023-06-22T07:00:03;22.50;99.90
7163;DHT22;3623;47.098;15.446;2023-06-22T07:02:35;22.60;99.90
7163;DHT22;3623;47.098;15.446;2023-06-22T07:05:03;22.80;99.90
7163;DHT22;3623;47.098;15.446;2023-06-22T07:07:30;22.80;99.90
7163;DHT22;3623;47.098;15.446;2023-06-22T07:09:58;23.10;99.90
7163;DHT22;3623;47.098;15.446;2023-06-22T07:12:26;23.20;99.90
7163;DHT22;3623;47.098;15.446;2023-06-22T07:14:53;23.40;99.90
7163;DHT22;3623;47.098;15.446;2023-06-22T07:17:20;23.50;99.90
7163;DHT22;3623;47.098;15.446;2023-06-22T07:19:47;23.50;99.90
7163;DHT22;3623;47.098;15.446;2023-06-22T07:22:14;23.80;99.90
7163;DHT22;3623;47.098;15.446;2023-06-22T07:24:41;23.70;99.90
7163;DHT22;3623;47.098;15.446;2023-06-22T07:27:09;23.90;99.90
7163;DHT22;3623;47.098;15.446;2023-06-22T07:29:37;23.90;99.90
7163;DHT22;3623;47.098;15.446;2023-06-22T07:32:06;24.20;99.90
7163;DHT22;3623;47.098;15.446;2023-06-22T07:34:34;24.40;99.90
7163;DHT22;3623;47.098;15.446;2023-06-22T07:37:01;24.60;99.90
7163;DHT22;3623;47.098;15.446;2023-06-22T07:39:29;24.60;99.90
7163;DHT22;3623;47.098;15.446;2023-06-22T07:41:56;24.80;99.90
7163;DHT22;3623;47.098;15.446;2023-06-22T07:44:24;24.90;99.90
7163;DHT22;3623;47.098;15.446;2023-06-22T07:46:51;24.90;99.90
7163;DHT22;3623;47.098;15.446;2023-06-22T07:49:18;25.20;99.90
7163;DHT22;3623;47.098;15.446;2023-06-22T07:51:45;25.70;99.90
7163;DHT22;3623;47.098;15.446;2023-06-22T07:54:12;25.80;99.90
7163;DHT22;3623;47.098;15.446;2023-06-22T07:56:41;26.30;99.90
7163;DHT22;3623;47.098;15.446;2023-06-22T07:59:08;26.50;99.90
7163;DHT22;3623;47.098;15.446;2023-06-22T08:01:37;26.10;99.90
7163;DHT22;3623;47.098;15.446;2023-06-22T08:04:04;26.10;99.90
7163;DHT22;3623;47.098;15.446;2023-06-22T08:06:32;26.10;99.90
7163;DHT22;3623;47.098;15.446;2023-06-22T08:08:59;25.90;99.90
7163;DHT22;3623;47.098;15.446;2023-06-22T08:11:26;26.00;99.90
7163;DHT22;3623;47.098;15.446;2023-06-22T08:13:53;26.00;99.90
7163;DHT22;3623;47.098;15.446;2023-06-22T08:16:21;26.00;99.90
7163;DHT22;3623;47.098;15.446;2023-06-22T08:18:50;26.00;99.90
7163;DHT22;3623;47.098;15.446;2023-06-22T08:21:17;25.80;99.90
7163;DHT22;3623;47.098;15.446;2023-06-22T08:23:44;25.90;99.90
7163;DHT22;3623;47.098;15.446;2023-06-22T08:26:11;26.00;99.90
7163;DHT22;3623;47.098;15.446;2023-06-22T08:28:38;26.30;99.90
7163;DHT22;3623;47.098;15.446;2023-06-22T08:31:05;26.20;99.90
7163;DHT22;3623;47.098;15.446;2023-06-22T08:33:32;26.10;99.90
7163;DHT22;3623;47.098;15.446;2023-06-22T08:36:00;26.30;99.90
7163;DHT22;3623;47.098;15.446;2023-06-22T08:38:27;26.60;99.90
7163;DHT22;3623;47.098;15.446;2023-06-22T08:40:54;26.60;99.90
7163;DHT22;3623;47.098;15.446;2023-06-22T08:43:21;26.80;99.90
7163;DHT22;3623;47.098;15.446;2023-06-22T08:45:48;26.70;99.90
7163;DHT22;3623;47.098;15.446;2023-06-22T08:48:15;26.70;99.90
7163;DHT22;3623;47.098;15.446;2023-06-22T08:50:42;26.60;99.90
7163;DHT22;3623;47.098;15.446;2023-06-22T08:53:11;26.90;99.90
7163;DHT22;3623;47.098;15.446;2023-06-22T08:55:38;26.80;99.90
7163;DHT22;3623;47.098;15.446;2023-06-22T08:58:05;26.70;99.90
7163;DHT22;3623;47.098;15.446;2023-06-22T09:00:32;26.80;99.90
7163;DHT22;3623;47.098;15.446;2023-06-22T09:03:00;27.10;99.90
7163;DHT22;3623;47.098;15.446;2023-06-22T09:05:28;27.10;99.90
7163;DHT22;3623;47.098;15.446;2023-06-22T09:07:56;27.10;99.90
7163;DHT22;3623;47.098;15.446;2023-06-22T09:10:25;27.00;99.90
7163;DHT22;3623;47.098;15.446;2023-06-22T09:12:52;26.80;99.90
7163;DHT22;3623;47.098;15.446;2023-06-22T09:15:20;26.90;99.90
7163;DHT22;3623;47.098;15.446;2023-06-22T09:17:47;27.00;99.90
7163;DHT22;3623;47.098;15.446;2023-06-22T09:20:14;26.60;99.90
7163;DHT22;3623;47.098;15.446;2023-06-22T09:22:42;27.30;99.90
7163;DHT22;3623;47.098;15.446;2023-06-22T09:25:09;27.60;99.90
7163;DHT22;3623;47.098;15.446;2023-06-22T09:27:38;27.70;99.90
7163;DHT22;3623;47.098;15.446;2023-06-22T09:30:06;27.70;99.90
7163;DHT22;3623;47.098;15.446;2023-06-22T09:32:33;27.90;99.90
7163;DHT22;3623;47.098;15.446;2023-06-22T09:35:04;27.90;99.90
7163;DHT22;3623;47.098;15.446;2023-06-22T09:37:32;27.90;99.90
7163;DHT22;3623;47.098;15.446;2023-06-22T09:39:59;27.60;99.90
7163;DHT22;3623;47.098;15.446;2023-06-22T09:42:26;27.70;99.90
7163;DHT22;3623;47.098;15.446;2023-06-22T09:44:55;27.80;99.90
7163;DHT22;3623;47.098;15.446;2023-06-22T09:47:22;28.00;99.90
7163;DHT22;3623;47.098;15.446;2023-06-22T09:49:49;28.30;99.90
7163;DHT22;3623;47.098;15.446;2023-06-22T09:52:16;28.50;99.90
7163;DHT22;3623;47.098;15.446;2023-06-22T09:54:43;28.60;99.90
7163;DHT22;3623;47.098;15.446;2023-06-22T09:57:10;28.70;99.90
7163;DHT22;3623;47.098;15.446;2023-06-22T09:59:37;28.90;99.90
7163;DHT22;3623;47.098;15.446;2023-06-22T10:02:07;29.00;99.90
7163;DHT22;3623;47.098;15.446;2023-06-22T10:04:34;29.00;99.90
7163;DHT22;3623;47.098;15.446;2023-06-22T10:07:02;29.00;99.90
7163;DHT22;3623;47.098;15.446;2023-06-22T10:09:29;29.10;99.90
7163;DHT22;3623;47.098;15.446;2023-06-22T10:11:56;29.10;99.90
7163;DHT22;3623;47.098;15.446;2023-06-22T10:14:23;29.20;99.90
7163;DHT22;3623;47.098;15.446;2023-06-22T10:16:52;29.30;99.90
7163;DHT22;3623;47.098;15.446;2023-06-22T10:19:20;29.40;99.90
7163;DHT22;3623;47.098;15.446;2023-06-22T10:21:47;29.70;99.90
7163;DHT22;3623;47.098;15.446;2023-06-22T10:24:14;29.80;99.90
7163;DHT22;3623;47.098;15.446;2023-06-22T10:26:41;30.00;99.90
7163;DHT22;3623;47.098;15.446;2023-06-22T10:29:08;30.60;99.90
7163;DHT22;3623;47.098;15.446;2023-06-22T10:31:36;31.10;99.90
7163;DHT22;3623;47.098;15.446;2023-06-22T10:34:03;31.40;99.90
7163;DHT22;3623;47.098;15.446;2023-06-22T10:36:32;31.80;99.90
7163;DHT22;3623;47.098;15.446;2023-06-22T10:38:59;31.70;99.90
7163;DHT22;3623;47.098;15.446;2023-06-22T10:41:27;32.10;99.90
7163;DHT22;3623;47.098;15.446;2023-06-22T10:43:55;32.60;99.90
7163;DHT22;3623;47.098;15.446;2023-06-22T10:46:24;33.10;99.90
7163;DHT22;3623;47.098;15.446;2023-06-22T10:48:51;34.00;99.90
7163;DHT22;3623;47.098;15.446;2023-06-22T10:51:20;34.30;99.90
7163;DHT22;3623;47.098;15.446;2023-06-22T10:53:49;34.10;99.90
7163;DHT22;3623;47.098;15.446;2023-06-22T10:56:17;33.70;99.90
7163;DHT22;3623;47.098;15.446;2023-06-22T10:58:45;34.70;99.90
7163;DHT22;3623;47.098;15.446;2023-06-22T11:01:13;34.90;99.90
7163;DHT22;3623;47.098;15.446;2023-06-22T11:03:40;35.20;99.90
7163;DHT22;3623;47.098;15.446;2023-06-22T11:06:07;34.90;99.90
7163;DHT22;3623;47.098;15.446;2023-06-22T11:08:34;34.90;99.90
7163;DHT22;3623;47.098;15.446;2023-06-22T11:11:02;35.10;99.90
7163;DHT22;3623;47.098;15.446;2023-06-22T11:13:29;34.80;99.90
7163;DHT22;3623;47.098;15.446;2023-06-22T11:15:56;34.60;99.90
7163;DHT22;3623;47.098;15.446;2023-06-22T11:18:23;34.30;99.90
7163;DHT22;3623;47.098;15.446;2023-06-22T11:20:50;34.10;99.90
7163;DHT22;3623;47.098;15.446;2023-06-22T11:23:18;34.50;99.90
7163;DHT22;3623;47.098;15.446;2023-06-22T11:25:46;35.40;99.90
7163;DHT22;3623;47.098;15.446;2023-06-22T11:28:14;36.10;99.90
7163;DHT22;3623;47.098;15.446;2023-06-22T11:30:41;35.20;99.90
7163;DHT22;3623;47.098;15.446;2023-06-22T11:33:08;35.30;99.90
7163;DHT22;3623;47.098;15.446;2023-06-22T11:35:35;36.00;99.90
7163;DHT22;3623;47.098;15.446;2023-06-22T11:38:02;36.50;99.90
7163;DHT22;3623;47.098;15.446;2023-06-22T11:40:30;36.40;99.90
7163;DHT22;3623;47.098;15.446;2023-06-22T11:42:57;36.40;99.90
7163;DHT22;3623;47.098;15.446;2023-06-22T11:45:27;36.70;99.90
7163;DHT22;3623;47.098;15.446;2023-06-22T11:47:54;36.70;99.90
7163;DHT22;3623;47.098;15.446;2023-06-22T11:50:21;36.20;99.90
7163;DHT22;3623;47.098;15.446;2023-06-22T11:52:48;36.20;99.90
7163;DHT22;3623;47.098;15.446;2023-06-22T11:55:15;36.00;99.90
7163;DHT22;3623;47.098;15.446;2023-06-22T11:57:53;36.20;99.90
7163;DHT22;3623;47.098;15.446;2023-06-22T12:00:21;36.40;99.90
7163;DHT22;3623;47.098;15.446;2023-06-22T12:02:51;37.00;99.90
7163;DHT22;3623;47.098;15.446;2023-06-22T12:05:19;37.50;99.90
7163;DHT22;3623;47.098;15.446;2023-06-22T12:07:46;37.30;99.90
7163;DHT22;3623;47.098;15.446;2023-06-22T12:10:13;37.40;99.90
7163;DHT22;3623;47.098;15.446;2023-06-22T12:12:41;37.90;99.90
7163;DHT22;3623;47.098;15.446;2023-06-22T12:15:09;37.60;99.90
7163;DHT22;3623;47.098;15.446;2023-06-22T12:17:37;37.50;99.90
7163;DHT22;3623;47.098;15.446;2023-06-22T12:20:07;37.50;99.90
7163;DHT22;3623;47.098;15.446;2023-06-22T12:22:34;36.80;99.90
7163;DHT22;3623;47.098;15.446;2023-06-22T12:25:03;36.60;99.90
7163;DHT22;3623;47.098;15.446;2023-06-22T12:27:30;36.30;99.90
7163;DHT22;3623;47.098;15.446;2023-06-22T12:29:57;36.90;99.90
7163;DHT22;3623;47.098;15.446;2023-06-22T12:32:24;36.80;99.90
7163;DHT22;3623;47.098;15.446;2023-06-22T12:34:52;37.30;99.90
7163;DHT22;3623;47.098;15.446;2023-06-22T12:37:21;37.80;99.90
7163;DHT22;3623;47.098;15.446;2023-06-22T12:39:48;37.50;99.90
7163;DHT22;3623;47.098;15.446;2023-06-22T12:42:15;36.50;99.90
7163;DHT22;3623;47.098;15.446;2023-06-22T12:44:43;35.90;99.90
7163;DHT22;3623;47.098;15.446;2023-06-22T12:47:10;35.30;99.90
7163;DHT22;3623;47.098;15.446;2023-06-22T12:49:37;35.20;99.90
7163;DHT22;3623;47.098;15.446;2023-06-22T12:52:09;35.30;99.90
7163;DHT22;3623;47.098;15.446;2023-06-22T12:54:37;36.30;99.90
7163;DHT22;3623;47.098;15.446;2023-06-22T12:57:05;37.10;99.90
7163;DHT22;3623;47.098;15.446;2023-06-22T12:59:32;36.60;99.90
7163;DHT22;3623;47.098;15.446;2023-06-22T13:01:59;36.30;99.90
7163;DHT22;3623;47.098;15.446;2023-06-22T13:04:27;36.70;99.90
7163;DHT22;3623;47.098;15.446;2023-06-22T13:06:54;36.30;99.90
7163;DHT22;3623;47.098;15.446;2023-06-22T13:09:21;36.70;99.90
7163;DHT22;3623;47.098;15.446;2023-06-22T13:11:49;36.60;99.90
7163;DHT22;3623;47.098;15.446;2023-06-22T13:14:19;36.80;99.90
7163;DHT22;3623;47.098;15.446;2023-06-22T13:16:46;37.50;99.90
7163;DHT22;3623;47.098;15.446;2023-06-22T13:19:13;37.10;99.90
7163;DHT22;3623;47.098;15.446;2023-06-22T13:21:40;37.60;99.90
7163;DHT22;3623;47.098;15.446;2023-06-22T13:24:07;37.70;99.90
7163;DHT22;3623;47.098;15.446;2023-06-22T13:26:34;36.80;99.90
7163;DHT22;3623;47.098;15.446;2023-06-22T13:29:04;36.30;99.90
7163;DHT22;3623;47.098;15.446;2023-06-22T13:31:31;36.20;99.90
7163;DHT22;3623;47.098;15.446;2023-06-22T13:33:58;36.50;99.90
7163;DHT22;3623;47.098;15.446;2023-06-22T13:36:25;35.80;99.90
7163;DHT22;3623;47.098;15.446;2023-06-22T13:38:56;35.60;99.90
7163;DHT22;3623;47.098;15.446;2023-06-22T13:41:23;36.10;99.90
7163;DHT22;3623;47.098;15.446;2023-06-22T13:43:50;36.00;99.90
7163;DHT22;3623;47.098;15.446;2023-06-22T13:46:19;35.40;99.90
7163;DHT22;3623;47.098;15.446;2023-06-22T13:48:46;35.80;99.90
7163;DHT22;3623;47.098;15.446;2023-06-22T13:51:13;36.00;99.90
7163;DHT22;3623;47.098;15.446;2023-06-22T13:53:40;36.50;99.90
7163;DHT22;3623;47.098;15.446;2023-06-22T13:56:07;35.90;99.90
7163;DHT22;3623;47.098;15.446;2023-06-22T13:58:34;35.70;99.90
7163;DHT22;3623;47.098;15.446;2023-06-22T14:01:01;36.20;99.90
7163;DHT22;3623;47.098;15.446;2023-06-22T14:03:29;36.60;99.90
7163;DHT22;3623;47.098;15.446;2023-06-22T14:05:56;36.60;99.90
7163;DHT22;3623;47.098;15.446;2023-06-22T14:08:23;36.30;99.90
7163;DHT22;3623;47.098;15.446;2023-06-22T14:10:51;36.10;99.90
7163;DHT22;3623;47.098;15.446;2023-06-22T14:13:19;35.70;99.90
7163;DHT22;3623;47.098;15.446;2023-06-22T14:15:46;35.50;99.90
7163;DHT22;3623;47.098;15.446;2023-06-22T14:18:16;35.40;99.90
7163;DHT22;3623;47.098;15.446;2023-06-22T14:20:44;35.50;99.90
7163;DHT22;3623;47.098;15.446;2023-06-22T14:23:13;34.80;99.90
7163;DHT22;3623;47.098;15.446;2023-06-22T14:25:40;34.80;99.90
7163;DHT22;3623;47.098;15.446;2023-06-22T14:28:07;34.70;99.90
7163;DHT22;3623;47.098;15.446;2023-06-22T14:30:34;34.90;99.90
7163;DHT22;3623;47.098;15.446;2023-06-22T14:33:01;35.10;99.90
7163;DHT22;3623;47.098;15.446;2023-06-22T14:35:28;35.10;99.90
7163;DHT22;3623;47.098;15.446;2023-06-22T14:37:57;34.60;99.90
7163;DHT22;3623;47.098;15.446;2023-06-22T14:40:24;34.90;99.90
7163;DHT22;3623;47.098;15.446;2023-06-22T14:42:51;34.60;99.90
7163;DHT22;3623;47.098;15.446;2023-06-22T14:45:18;34.60;99.90
7163;DHT22;3623;47.098;15.446;2023-06-22T14:47:45;34.50;99.90
7163;DHT22;3623;47.098;15.446;2023-06-22T14:50:12;34.50;99.90
7163;DHT22;3623;47.098;15.446;2023-06-22T14:52:39;34.70;99.90
7163;DHT22;3623;47.098;15.446;2023-06-22T14:55:08;34.60;99.90
7163;DHT22;3623;47.098;15.446;2023-06-22T14:57:36;34.80;99.90
7163;DHT22;3623;47.098;15.446;2023-06-22T15:00:04;34.30;99.90
7163;DHT22;3623;47.098;15.446;2023-06-22T15:02:32;34.10;99.90
7163;DHT22;3623;47.098;15.446;2023-06-22T15:04:59;33.90;99.90
7163;DHT22;3623;47.098;15.446;2023-06-22T15:07:26;33.80;99.90
7163;DHT22;3623;47.098;15.446;2023-06-22T15:09:53;33.70;99.90
7163;DHT22;3623;47.098;15.446;2023-06-22T15:12:21;33.70;99.90
7163;DHT22;3623;47.098;15.446;2023-06-22T15:14:48;33.60;99.90
7163;DHT22;3623;47.098;15.446;2023-06-22T15:17:15;33.30;99.90
7163;DHT22;3623;47.098;15.446;2023-06-22T15:19:43;33.00;99.90
7163;DHT22;3623;47.098;15.446;2023-06-22T15:22:10;32.40;99.90
7163;DHT22;3623;47.098;15.446;2023-06-22T15:24:38;32.00;99.90
7163;DHT22;3623;47.098;15.446;2023-06-22T15:27:06;31.80;99.90
7163;DHT22;3623;47.098;15.446;2023-06-22T15:29:34;31.70;99.90
7163;DHT22;3623;47.098;15.446;2023-06-22T15:32:01;32.00;99.90
7163;DHT22;3623;47.098;15.446;2023-06-22T15:34:28;32.10;99.90
7163;DHT22;3623;47.098;15.446;2023-06-22T15:36:55;32.00;99.90
7163;DHT22;3623;47.098;15.446;2023-06-22T15:39:22;32.10;99.90
7163;DHT22;3623;47.098;15.446;2023-06-22T15:41:52;31.90;99.90
7163;DHT22;3623;47.098;15.446;2023-06-22T15:44:20;31.60;99.90
7163;DHT22;3623;47.098;15.446;2023-06-22T15:46:48;31.50;99.90
7163;DHT22;3623;47.098;15.446;2023-06-22T15:49:15;31.50;99.90